Terminal Aerodrome Forecast
Issued by NWS

Home | Current Version | Previous Version | Text Only | Print | Product List | Glossary On
Versions: 1 2 3 4 5 6 7 8 9 10 11 12 13 14 15 16 17 18 19 20 21 22 23 24 25 26 27 28 29 30 31 32 33 34 35 36 37 38 39 40 41 42 43 44
000
FTUS44 KHGX 220520
TAFCXO
TAF
KCXO 220520Z 2206/2306 00000KT P6SM SKC
      TEMPO 2209/2213 3SM BR
     FM221400 16004KT P6SM SCT025
     FM222100 15004KT P6SM SCT045 SCT250
     FM230300 14005KT P6SM SKC=

USA.gov is the U.S. government's official web portal to all federal, state and local government web resources and services.